createdAt,value
2022-09-29T00:00:35.958Z,9.10
2022-09-29T00:05:59.342Z,9.10
2022-09-29T00:11:02.710Z,9.10
2022-09-29T00:16:06.462Z,9.00
2022-09-29T00:21:20.385Z,9.00
2022-09-29T00:26:25.489Z,9.00
2022-09-29T00:31:31.677Z,8.90
2022-09-29T00:36:34.920Z,9.00
2022-09-29T00:41:41.001Z,9.00
2022-09-29T00:46:49.951Z,9.00
2022-09-29T00:52:02.536Z,9.00
2022-09-29T00:57:08.493Z,9.00
2022-09-29T01:02:11.912Z,9.00
2022-09-29T01:07:16.032Z,8.90
2022-09-29T01:12:19.460Z,8.90
2022-09-29T01:17:24.201Z,8.90
2022-09-29T01:22:59.342Z,8.90
2022-09-29T01:28:35.417Z,8.90
2022-09-29T01:33:54.066Z,8.90
2022-09-29T01:39:05.953Z,8.90
2022-09-29T01:44:09.102Z,9.00
2022-09-29T01:49:13.640Z,8.90
2022-09-29T01:54:23.116Z,8.90
2022-09-29T01:59:50.172Z,8.90
2022-09-29T02:05:01.774Z,8.90
2022-09-29T02:10:15.188Z,8.90
2022-09-29T02:15:23.311Z,8.90
2022-09-29T02:20:26.971Z,8.90
2022-09-29T02:25:30.243Z,8.90
2022-09-29T02:30:34.023Z,8.90
2022-09-29T02:35:51.049Z,8.90
2022-09-29T02:41:00.752Z,8.90
2022-09-29T02:46:21.831Z,8.90
2022-09-29T02:51:40.999Z,8.90
2022-09-29T02:57:22.871Z,9.00
2022-09-29T03:02:27.461Z,8.90
2022-09-29T03:07:31.099Z,9.00
2022-09-29T03:12:34.853Z,8.90
2022-09-29T03:17:38.262Z,8.90
2022-09-29T03:22:41.452Z,9.00
2022-09-29T03:27:44.870Z,8.90
2022-09-29T03:32:48.119Z,9.00
2022-09-29T03:37:51.333Z,9.00
2022-09-29T03:42:54.291Z,9.00
2022-09-29T03:47:57.479Z,9.00
2022-09-29T03:53:00.897Z,9.00
2022-09-29T03:58:04.302Z,9.00
2022-09-29T04:03:07.593Z,9.00
2022-09-29T04:08:10.858Z,9.00
2022-09-29T04:13:19.160Z,9.10
2022-09-29T04:18:24.569Z,9.10
2022-09-29T04:23:31.153Z,9.10
2022-09-29T04:28:36.580Z,9.10
2022-09-29T04:33:40.802Z,9.00
2022-09-29T04:38:44.192Z,9.00
2022-09-29T04:43:47.417Z,9.00
2022-09-29T04:48:50.689Z,9.00
2022-09-29T04:53:54.029Z,9.00
2022-09-29T04:58:57.381Z,9.00
2022-09-29T05:04:01.409Z,9.00
2022-09-29T05:09:05.919Z,9.00
2022-09-29T05:14:09.242Z,9.00
2022-09-29T05:19:12.670Z,9.00
2022-09-29T05:24:16.079Z,8.90
2022-09-29T05:29:19.840Z,8.90
2022-09-29T05:34:23.278Z,8.80
2022-09-29T05:39:26.859Z,8.80
2022-09-29T05:44:30.230Z,8.80
2022-09-29T05:49:33.543Z,8.80
2022-09-29T05:54:36.556Z,8.90
2022-09-29T05:59:39.808Z,8.90
2022-09-29T06:04:43.219Z,8.90
2022-09-29T06:09:48.001Z,8.90
2022-09-29T06:14:51.579Z,8.90
2022-09-29T06:19:55.009Z,8.80
2022-09-29T06:24:58.256Z,8.80
2022-09-29T06:30:01.531Z,8.80
2022-09-29T06:35:23.829Z,8.80
2022-09-29T06:40:28.381Z,8.90
2022-09-29T06:45:31.659Z,9.00
2022-09-29T06:50:37.080Z,9.10
2022-09-29T06:55:40.329Z,9.10
2022-09-29T07:00:45.892Z,9.20
2022-09-29T07:06:15.316Z,9.30
2022-09-29T07:44:23.988Z,9.30
2022-09-29T07:49:26.984Z,9.30
2022-09-29T07:54:31.776Z,9.30
2022-09-29T07:59:34.967Z,9.30
2022-09-29T08:04:38.687Z,9.40
2022-09-29T08:09:42.271Z,9.40
2022-09-29T08:14:45.572Z,9.40
2022-09-29T08:19:48.728Z,9.50
2022-09-29T08:24:51.972Z,9.50
2022-09-29T08:29:55.598Z,9.60
2022-09-29T08:34:59.127Z,9.60
2022-09-29T08:40:03.013Z,9.60
2022-09-29T08:45:16.394Z,9.70
2022-09-29T08:50:32.594Z,9.70
2022-09-29T08:55:51.328Z,9.90
2022-09-29T09:01:00.492Z,10.00
2022-09-29T09:06:29.811Z,10.10
2022-09-29T09:12:02.367Z,10.10
2022-09-29T09:17:27.136Z,10.20
2022-09-29T09:22:48.287Z,10.50
2022-09-29T09:28:04.733Z,10.80
2022-09-29T09:33:33.790Z,11.40
2022-09-29T09:39:15.187Z,11.60
2022-09-29T09:44:33.651Z,11.60
2022-09-29T09:49:52.787Z,11.50
2022-09-29T09:55:04.897Z,11.60
2022-09-29T10:00:36.009Z,11.80
2022-09-29T10:05:46.079Z,11.90
2022-09-29T10:10:58.000Z,12.10
2022-09-29T10:16:20.220Z,12.20
2022-09-29T10:21:30.269Z,12.20
2022-09-29T10:26:42.597Z,12.40
2022-09-29T10:33:53.935Z,12.50
2022-09-29T10:39:03.311Z,12.60
2022-09-29T10:44:22.190Z,12.60
2022-09-29T10:49:32.204Z,12.50
2022-09-29T10:54:38.056Z,12.60
2022-09-29T10:59:54.307Z,12.60
2022-09-29T11:05:01.659Z,12.80
2022-09-29T11:10:05.139Z,12.80
2022-09-29T11:15:29.528Z,12.80
2022-09-29T11:20:36.690Z,12.80
2022-09-29T11:25:55.008Z,12.80
2022-09-29T11:31:24.683Z,12.90
2022-09-29T11:36:42.744Z,13.00
2022-09-29T11:42:24.791Z,13.10
2022-09-29T11:47:31.117Z,13.10
2022-09-29T11:52:56.363Z,13.10
2022-09-29T11:58:09.038Z,13.00
2022-09-29T12:03:24.200Z,13.00
2022-09-29T12:08:39.597Z,13.00
2022-09-29T12:13:49.543Z,13.20
2022-09-29T12:19:17.128Z,13.30
2022-09-29T12:24:41.048Z,13.40
2022-09-29T12:29:57.106Z,13.60
2022-09-29T12:35:05.159Z,13.70
2022-09-29T12:40:20.258Z,13.50
2022-09-29T12:45:23.700Z,13.50
2022-09-29T12:50:35.551Z,13.50
2022-09-29T12:55:54.590Z,13.70
2022-09-29T13:01:14.563Z,14.00
2022-09-29T13:06:49.486Z,14.50
2022-09-29T13:12:01.594Z,14.90
2022-09-29T13:17:32.865Z,15.00
2022-09-29T13:23:13.049Z,14.60
2022-09-29T13:28:44.516Z,14.10
2022-09-29T13:33:54.604Z,14.00
2022-09-29T13:39:00.614Z,13.70
2022-09-29T13:44:06.832Z,13.70
2022-09-29T13:49:12.965Z,13.80
2022-09-29T13:54:34.778Z,13.70
2022-09-29T13:59:45.380Z,13.70
2022-09-29T14:04:56.491Z,13.80
2022-09-29T14:10:07.827Z,13.70
2022-09-29T14:15:18.517Z,13.70
2022-09-29T14:20:27.216Z,13.70
2022-09-29T14:25:42.495Z,14.20
2022-09-29T14:30:55.610Z,14.70
2022-09-29T14:36:01.912Z,15.20
2022-09-29T14:41:08.657Z,15.50
2022-09-29T14:46:48.678Z,15.60
2022-09-29T14:52:09.012Z,15.70
2022-09-29T14:57:40.177Z,15.80
2022-09-29T15:02:52.110Z,15.70
2022-09-29T15:08:03.345Z,15.60
2022-09-29T15:13:35.975Z,15.50
2022-09-29T15:18:59.414Z,15.30
2022-09-29T15:24:16.236Z,14.90
2022-09-29T15:29:20.000Z,14.70
2022-09-29T15:34:28.456Z,14.60
2022-09-29T15:39:32.276Z,14.50
2022-09-29T15:44:35.463Z,14.40
2022-09-29T15:49:52.057Z,14.20
2022-09-29T15:54:57.200Z,13.80
2022-09-29T16:00:00.466Z,13.40
2022-09-29T16:05:07.846Z,13.00
2022-09-29T16:10:20.045Z,12.60
2022-09-29T16:15:31.970Z,12.30
2022-09-29T16:20:36.396Z,12.20
2022-09-29T16:25:39.654Z,12.00
2022-09-29T16:31:11.167Z,11.90
2022-09-29T16:36:23.270Z,11.70
2022-09-29T16:41:37.429Z,11.50
2022-09-29T16:46:50.597Z,11.30
2022-09-29T16:51:59.206Z,11.00
2022-09-29T16:57:31.355Z,10.90
2022-09-29T17:02:34.701Z,10.70
2022-09-29T17:07:42.297Z,10.50
2022-09-29T17:12:45.569Z,10.20
2022-09-29T17:17:51.308Z,10.00
2022-09-29T17:22:54.718Z,9.80
2022-09-29T17:28:13.011Z,9.60
2022-09-29T17:33:19.066Z,9.60
2022-09-29T17:38:22.739Z,9.60
2022-09-29T17:43:26.338Z,9.60
2022-09-29T17:48:32.858Z,9.50
2022-09-29T17:53:36.531Z,9.50
2022-09-29T17:58:41.488Z,9.50
2022-09-29T18:03:45.097Z,9.30
2022-09-29T18:08:54.085Z,9.30
2022-09-29T18:13:57.804Z,9.20
2022-09-29T18:19:01.357Z,9.00
2022-09-29T18:24:04.917Z,8.90
2022-09-29T18:29:19.489Z,8.80
2022-09-29T18:34:23.595Z,8.70
2022-09-29T18:39:27.344Z,8.40
2022-09-29T18:44:33.852Z,8.30
2022-09-29T18:49:37.843Z,8.20
2022-09-29T18:54:41.486Z,8.10
2022-09-29T18:59:45.432Z,8.00
2022-09-29T19:04:53.112Z,7.80
2022-09-29T19:09:57.795Z,7.80
2022-09-29T19:15:01.495Z,7.60
2022-09-29T19:20:05.547Z,7.50
2022-09-29T19:25:14.580Z,7.30
2022-09-29T19:30:20.952Z,7.30
2022-09-29T19:35:25.386Z,7.10
2022-09-29T19:40:34.777Z,7.00
2022-09-29T19:45:38.207Z,7.00
2022-09-29T19:51:01.597Z,6.90
2022-09-29T19:56:12.876Z,6.80
2022-09-29T20:01:16.152Z,6.70
2022-09-29T20:06:19.348Z,6.70
2022-09-29T20:11:22.846Z,6.50
2022-09-29T20:16:27.491Z,6.40
2022-09-29T20:21:31.097Z,6.40
2022-09-29T20:26:34.570Z,6.30
2022-09-29T20:31:39.059Z,6.20
2022-09-29T20:36:42.716Z,6.10
2022-09-29T20:41:46.887Z,6.10
2022-09-29T20:46:52.272Z,6.00
2022-09-29T20:51:56.386Z,6.00
2022-09-29T20:57:01.393Z,5.90
2022-09-29T21:02:05.058Z,5.80
2022-09-29T21:07:28.626Z,5.70
2022-09-29T21:12:35.098Z,5.70
2022-09-29T21:17:38.267Z,5.60
2022-09-29T21:22:41.515Z,5.60
2022-09-29T21:27:44.716Z,5.50
2022-09-29T21:32:48.950Z,5.50
2022-09-29T21:37:52.697Z,5.50
2022-09-29T21:42:56.246Z,5.50
2022-09-29T21:48:08.336Z,5.50
2022-09-29T21:53:12.172Z,5.50
2022-09-29T21:58:16.147Z,5.50
2022-09-29T22:03:19.356Z,5.60
2022-09-29T22:08:25.187Z,5.60
2022-09-29T22:13:28.346Z,5.60
2022-09-29T22:18:41.322Z,5.60
2022-09-29T22:23:45.836Z,5.60
2022-09-29T22:28:49.226Z,5.60
2022-09-29T22:33:57.547Z,5.50
2022-09-29T22:39:02.411Z,5.50
2022-09-29T22:44:06.079Z,5.60
2022-09-29T22:49:09.272Z,5.60
2022-09-29T22:54:12.387Z,5.50
2022-09-29T22:59:17.308Z,5.50
2022-09-29T23:04:20.903Z,5.50
2022-09-29T23:09:24.335Z,5.50
2022-09-29T23:14:28.838Z,5.50
2022-09-29T23:19:32.766Z,5.50
2022-09-29T23:24:36.554Z,5.50
2022-09-29T23:29:40.677Z,5.60
2022-09-29T23:34:44.532Z,5.60
2022-09-29T23:39:47.791Z,5.60
2022-09-29T23:44:51.184Z,5.70
2022-09-29T23:49:54.366Z,5.70
2022-09-29T23:54:57.827Z,5.80
